sensor_id;sensor_type;location;lat;lon;timestamp;P1;durP1;ratioP1;P2;durP2;ratioP2
58097;SDS011;43913;55.940;37.504;2023-03-09T01:34:36;3.90;;;3.05;;
58097;SDS011;43913;55.940;37.504;2023-03-09T01:37:03;4.00;;;2.75;;
58097;SDS011;43913;55.940;37.504;2023-03-09T01:39:29;5.07;;;3.20;;
58097;SDS011;43913;55.940;37.504;2023-03-09T01:41:56;2.60;;;2.40;;
58097;SDS011;43913;55.940;37.504;2023-03-09T01:44:22;3.50;;;2.80;;
58097;SDS011;43913;55.940;37.504;2023-03-09T01:46:56;3.60;;;3.08;;
58097;SDS011;43913;55.940;37.504;2023-03-09T01:54:43;2.90;;;2.60;;
58097;SDS011;43913;55.940;37.504;2023-03-09T01:57:26;4.30;;;2.72;;
58097;SDS011;43913;55.940;37.504;2023-03-09T01:59:57;4.50;;;3.40;;
58097;SDS011;43913;55.940;37.504;2023-03-09T02:02:41;3.03;;;2.47;;
58097;SDS011;43913;55.940;37.504;2023-03-09T02:05:11;3.95;;;2.80;;
58097;SDS011;43913;55.940;37.504;2023-03-09T02:07:41;4.25;;;2.63;;
58097;SDS011;43913;55.940;37.504;2023-03-09T02:10:14;3.92;;;3.08;;
58097;SDS011;43913;55.940;37.504;2023-03-09T02:13:09;3.60;;;3.22;;
58097;SDS011;43913;55.940;37.504;2023-03-09T02:15:38;3.45;;;2.65;;
58097;SDS011;43913;55.940;37.504;2023-03-09T02:18:05;4.28;;;2.83;;
58097;SDS011;43913;55.940;37.504;2023-03-09T02:26:08;3.58;;;2.67;;
58097;SDS011;43913;55.940;37.504;2023-03-09T02:28:45;3.35;;;2.53;;
58097;SDS011;43913;55.940;37.504;2023-03-09T02:31:11;4.15;;;2.90;;
58097;SDS011;43913;55.940;37.504;2023-03-09T02:33:37;5.43;;;3.05;;
58097;SDS011;43913;55.940;37.504;2023-03-09T02:36:03;2.53;;;2.13;;
58097;SDS011;43913;55.940;37.504;2023-03-09T02:38:35;5.00;;;2.80;;
58097;SDS011;43913;55.940;37.504;2023-03-09T02:41:03;5.47;;;2.45;;
58097;SDS011;43913;55.940;37.504;2023-03-09T02:44:12;2.97;;;2.67;;
58097;SDS011;43913;55.940;37.504;2023-03-09T02:46:19;3.03;;;2.50;;
58097;SDS011;43913;55.940;37.504;2023-03-09T02:48:45;3.30;;;2.50;;
58097;SDS011;43913;55.940;37.504;2023-03-09T02:51:11;2.65;;;2.45;;
58097;SDS011;43913;55.940;37.504;2023-03-09T02:53:40;3.05;;;2.40;;
58097;SDS011;43913;55.940;37.504;2023-03-09T02:56:07;5.65;;;2.63;;
58097;SDS011;43913;55.940;37.504;2023-03-09T02:58:33;2.85;;;2.50;;
58097;SDS011;43913;55.940;37.504;2023-03-09T03:00:59;3.30;;;2.60;;
58097;SDS011;43913;55.940;37.504;2023-03-09T03:03:25;4.75;;;2.80;;
58097;SDS011;43913;55.940;37.504;2023-03-09T03:05:51;8.20;;;2.95;;
58097;SDS011;43913;55.940;37.504;2023-03-09T03:08:17;2.75;;;2.17;;
58097;SDS011;43913;55.940;37.504;2023-03-09T03:10:43;2.72;;;2.53;;
58097;SDS011;43913;55.940;37.504;2023-03-09T03:13:10;4.18;;;2.70;;
58097;SDS011;43913;55.940;37.504;2023-03-09T03:15:36;2.75;;;2.22;;
58097;SDS011;43913;55.940;37.504;2023-03-09T03:18:02;3.80;;;2.42;;
58097;SDS011;43913;55.940;37.504;2023-03-09T03:20:28;2.70;;;2.50;;
58097;SDS011;43913;55.940;37.504;2023-03-09T03:22:54;3.55;;;2.40;;
58097;SDS011;43913;55.940;37.504;2023-03-09T03:25:27;3.85;;;3.45;;
58097;SDS011;43913;55.940;37.504;2023-03-09T03:27:57;3.47;;;2.45;;
58097;SDS011;43913;55.940;37.504;2023-03-09T03:30:23;2.85;;;2.47;;
58097;SDS011;43913;55.940;37.504;2023-03-09T03:32:51;5.22;;;2.88;;
58097;SDS011;43913;55.940;37.504;2023-03-09T03:35:20;3.50;;;2.50;;
58097;SDS011;43913;55.940;37.504;2023-03-09T03:37:46;3.45;;;2.15;;
58097;SDS011;43913;55.940;37.504;2023-03-09T03:40:13;3.55;;;2.55;;
58097;SDS011;43913;55.940;37.504;2023-03-09T03:42:43;3.08;;;2.20;;
58097;SDS011;43913;55.940;37.504;2023-03-09T03:45:10;3.15;;;2.30;;
58097;SDS011;43913;55.940;37.504;2023-03-09T03:47:36;3.78;;;2.50;;
58097;SDS011;43913;55.940;37.504;2023-03-09T03:50:03;2.40;;;2.20;;
58097;SDS011;43913;55.940;37.504;2023-03-09T03:52:33;3.35;;;1.98;;
58097;SDS011;43913;55.940;37.504;2023-03-09T03:54:58;2.78;;;2.28;;
58097;SDS011;43913;55.940;37.504;2023-03-09T03:57:26;4.05;;;2.50;;
58097;SDS011;43913;55.940;37.504;2023-03-09T03:59:53;4.18;;;2.90;;
58097;SDS011;43913;55.940;37.504;2023-03-09T04:02:18;6.47;;;2.92;;
58097;SDS011;43913;55.940;37.504;2023-03-09T04:04:44;3.05;;;2.25;;
58097;SDS011;43913;55.940;37.504;2023-03-09T04:07:11;3.67;;;2.50;;
58097;SDS011;43913;55.940;37.504;2023-03-09T04:09:36;7.03;;;2.45;;
58097;SDS011;43913;55.940;37.504;2023-03-09T04:12:02;4.00;;;2.50;;
58097;SDS011;43913;55.940;37.504;2023-03-09T04:14:30;3.58;;;2.95;;
58097;SDS011;43913;55.940;37.504;2023-03-09T04:17:00;2.53;;;2.28;;
58097;SDS011;43913;55.940;37.504;2023-03-09T04:19:29;4.25;;;2.55;;
58097;SDS011;43913;55.940;37.504;2023-03-09T04:21:54;2.95;;;2.15;;
58097;SDS011;43913;55.940;37.504;2023-03-09T04:24:21;2.75;;;2.20;;
58097;SDS011;43913;55.940;37.504;2023-03-09T04:26:47;6.25;;;3.42;;
58097;SDS011;43913;55.940;37.504;2023-03-09T04:29:22;4.05;;;2.47;;
58097;SDS011;43913;55.940;37.504;2023-03-09T04:31:49;6.80;;;3.22;;
58097;SDS011;43913;55.940;37.504;2023-03-09T04:34:14;2.40;;;2.00;;
58097;SDS011;43913;55.940;37.504;2023-03-09T04:36:41;2.50;;;2.30;;
58097;SDS011;43913;55.940;37.504;2023-03-09T04:39:07;3.40;;;2.50;;
58097;SDS011;43913;55.940;37.504;2023-03-09T04:41:34;2.30;;;2.10;;
58097;SDS011;43913;55.940;37.504;2023-03-09T04:44:03;6.50;;;2.47;;
58097;SDS011;43913;55.940;37.504;2023-03-09T04:46:29;2.88;;;2.33;;
58097;SDS011;43913;55.940;37.504;2023-03-09T04:48:59;2.40;;;2.20;;
58097;SDS011;43913;55.940;37.504;2023-03-09T04:51:25;4.00;;;2.50;;
58097;SDS011;43913;55.940;37.504;2023-03-09T04:53:52;3.38;;;2.95;;
58097;SDS011;43913;55.940;37.504;2023-03-09T04:56:20;4.53;;;2.50;;
58097;SDS011;43913;55.940;37.504;2023-03-09T04:58:50;3.38;;;2.42;;
58097;SDS011;43913;55.940;37.504;2023-03-09T05:01:17;3.08;;;2.35;;
58097;SDS011;43913;55.940;37.504;2023-03-09T05:03:43;4.10;;;2.70;;
58097;SDS011;43913;55.940;37.504;2023-03-09T05:06:10;3.30;;;2.53;;
58097;SDS011;43913;55.940;37.504;2023-03-09T05:08:35;2.97;;;2.42;;
58097;SDS011;43913;55.940;37.504;2023-03-09T05:11:02;3.47;;;2.35;;
58097;SDS011;43913;55.940;37.504;2023-03-09T05:13:28;3.83;;;2.33;;
58097;SDS011;43913;55.940;37.504;2023-03-09T05:15:54;4.28;;;2.28;;
58097;SDS011;43913;55.940;37.504;2023-03-09T05:18:21;3.03;;;2.72;;
58097;SDS011;43913;55.940;37.504;2023-03-09T05:20:48;4.65;;;2.42;;
58097;SDS011;43913;55.940;37.504;2023-03-09T05:23:13;4.28;;;2.53;;
58097;SDS011;43913;55.940;37.504;2023-03-09T05:25:39;3.13;;;2.42;;
58097;SDS011;43913;55.940;37.504;2023-03-09T05:28:07;4.15;;;2.42;;
58097;SDS011;43913;55.940;37.504;2023-03-09T05:30:34;3.55;;;2.30;;
58097;SDS011;43913;55.940;37.504;2023-03-09T05:33:04;2.65;;;2.05;;
58097;SDS011;43913;55.940;37.504;2023-03-09T05:35:31;4.78;;;2.42;;
58097;SDS011;43913;55.940;37.504;2023-03-09T05:37:59;2.33;;;1.85;;
58097;SDS011;43913;55.940;37.504;2023-03-09T05:40:25;2.72;;;2.47;;
58097;SDS011;43913;55.940;37.504;2023-03-09T05:42:56;3.00;;;2.22;;
58097;SDS011;43913;55.940;37.504;2023-03-09T05:45:21;4.43;;;2.72;;
58097;SDS011;43913;55.940;37.504;2023-03-09T05:47:49;5.45;;;2.67;;
58097;SDS011;43913;55.940;37.504;2023-03-09T05:50:15;2.92;;;2.20;;
58097;SDS011;43913;55.940;37.504;2023-03-09T05:52:41;5.15;;;3.08;;
58097;SDS011;43913;55.940;37.504;2023-03-09T05:55:07;2.85;;;2.08;;
58097;SDS011;43913;55.940;37.504;2023-03-09T05:57:39;3.97;;;2.42;;
58097;SDS011;43913;55.940;37.504;2023-03-09T06:00:06;2.40;;;2.20;;
58097;SDS011;43913;55.940;37.504;2023-03-09T06:02:39;3.97;;;2.38;;
58097;SDS011;43913;55.940;37.504;2023-03-09T06:05:05;2.72;;;2.30;;
58097;SDS011;43913;55.940;37.504;2023-03-09T06:07:31;2.72;;;2.17;;
58097;SDS011;43913;55.940;37.504;2023-03-09T06:10:00;5.15;;;2.45;;
58097;SDS011;43913;55.940;37.504;2023-03-09T06:12:27;3.53;;;2.22;;
58097;SDS011;43913;55.940;37.504;2023-03-09T06:14:54;5.05;;;2.40;;
58097;SDS011;43913;55.940;37.504;2023-03-09T06:17:24;3.25;;;2.13;;
58097;SDS011;43913;55.940;37.504;2023-03-09T06:19:49;4.63;;;2.28;;
58097;SDS011;43913;55.940;37.504;2023-03-09T06:22:16;3.63;;;2.40;;
58097;SDS011;43913;55.940;37.504;2023-03-09T06:24:42;2.55;;;2.20;;
58097;SDS011;43913;55.940;37.504;2023-03-09T06:27:09;3.55;;;2.10;;
58097;SDS011;43913;55.940;37.504;2023-03-09T06:29:37;3.30;;;2.33;;
58097;SDS011;43913;55.940;37.504;2023-03-09T06:32:02;3.58;;;2.35;;
58097;SDS011;43913;55.940;37.504;2023-03-09T06:34:31;2.85;;;2.25;;
58097;SDS011;43913;55.940;37.504;2023-03-09T06:37:01;5.13;;;2.30;;
58097;SDS011;43913;55.940;37.504;2023-03-09T06:39:26;5.22;;;2.67;;
58097;SDS011;43913;55.940;37.504;2023-03-09T06:41:52;2.13;;;1.80;;
58097;SDS011;43913;55.940;37.504;2023-03-09T06:44:26;3.05;;;2.05;;
58097;SDS011;43913;55.940;37.504;2023-03-09T06:46:53;3.10;;;2.20;;
58097;SDS011;43913;55.940;37.504;2023-03-09T06:49:21;2.30;;;1.80;;
58097;SDS011;43913;55.940;37.504;2023-03-09T06:51:48;3.92;;;2.88;;
58097;SDS011;43913;55.940;37.504;2023-03-09T06:54:14;3.97;;;2.20;;
58097;SDS011;43913;55.940;37.504;2023-03-09T06:56:47;4.90;;;2.13;;
58097;SDS011;43913;55.940;37.504;2023-03-09T06:59:12;2.67;;;2.00;;
58097;SDS011;43913;55.940;37.504;2023-03-09T07:01:40;2.03;;;1.83;;
58097;SDS011;43913;55.940;37.504;2023-03-09T07:04:06;2.45;;;1.88;;
58097;SDS011;43913;55.940;37.504;2023-03-09T07:06:32;2.63;;;1.92;;
58097;SDS011;43913;55.940;37.504;2023-03-09T07:08:58;3.47;;;2.25;;
58097;SDS011;43913;55.940;37.504;2023-03-09T07:11:23;4.35;;;2.47;;
58097;SDS011;43913;55.940;37.504;2023-03-09T07:13:49;2.65;;;2.13;;
58097;SDS011;43913;55.940;37.504;2023-03-09T07:16:15;4.05;;;2.05;;
58097;SDS011;43913;55.940;37.504;2023-03-09T07:18:40;3.25;;;1.88;;
58097;SDS011;43913;55.940;37.504;2023-03-09T07:21:06;3.42;;;2.60;;
58097;SDS011;43913;55.940;37.504;2023-03-09T07:23:34;3.00;;;1.83;;
58097;SDS011;43913;55.940;37.504;2023-03-09T07:26:00;2.60;;;2.08;;
58097;SDS011;43913;55.940;37.504;2023-03-09T07:28:26;3.42;;;2.10;;
58097;SDS011;43913;55.940;37.504;2023-03-09T07:30:52;3.08;;;2.70;;
58097;SDS011;43913;55.940;37.504;2023-03-09T07:33:18;5.50;;;2.20;;
58097;SDS011;43913;55.940;37.504;2023-03-09T07:35:44;3.13;;;2.30;;
58097;SDS011;43913;55.940;37.504;2023-03-09T07:38:10;3.25;;;2.42;;
58097;SDS011;43913;55.940;37.504;2023-03-09T07:40:36;2.85;;;1.80;;
58097;SDS011;43913;55.940;37.504;2023-03-09T07:43:02;4.32;;;1.80;;
58097;SDS011;43913;55.940;37.504;2023-03-09T07:45:50;3.58;;;1.88;;
58097;SDS011;43913;55.940;37.504;2023-03-09T07:48:18;4.18;;;1.88;;
58097;SDS011;43913;55.940;37.504;2023-03-09T07:50:44;2.90;;;2.30;;
58097;SDS011;43913;55.940;37.504;2023-03-09T07:53:10;6.05;;;1.98;;
58097;SDS011;43913;55.940;37.504;2023-03-09T07:55:35;5.43;;;1.92;;
58097;SDS011;43913;55.940;37.504;2023-03-09T07:58:02;3.08;;;1.90;;
58097;SDS011;43913;55.940;37.504;2023-03-09T08:00:28;1.88;;;1.70;;
58097;SDS011;43913;55.940;37.504;2023-03-09T08:02:55;2.20;;;1.52;;
58097;SDS011;43913;55.940;37.504;2023-03-09T08:05:21;3.17;;;1.60;;
58097;SDS011;43913;55.940;37.504;2023-03-09T08:07:47;3.38;;;1.67;;
58097;SDS011;43913;55.940;37.504;2023-03-09T08:10:17;2.03;;;1.50;;
58097;SDS011;43913;55.940;37.504;2023-03-09T08:12:47;1.77;;;1.65;;
58097;SDS011;43913;55.940;37.504;2023-03-09T08:15:13;2.15;;;1.95;;
58097;SDS011;43913;55.940;37.504;2023-03-09T08:17:39;3.55;;;1.80;;
58097;SDS011;43913;55.940;37.504;2023-03-09T08:20:05;2.78;;;2.25;;
58097;SDS011;43913;55.940;37.504;2023-03-09T08:22:35;3.08;;;1.90;;
58097;SDS011;43913;55.940;37.504;2023-03-09T08:25:02;2.42;;;1.70;;
58097;SDS011;43913;55.940;37.504;2023-03-09T08:27:29;2.33;;;1.95;;
58097;SDS011;43913;55.940;37.504;2023-03-09T08:29:55;5.60;;;2.15;;
58097;SDS011;43913;55.940;37.504;2023-03-09T08:32:20;2.10;;;1.58;;
58097;SDS011;43913;55.940;37.504;2023-03-09T08:34:49;3.88;;;1.85;;
58097;SDS011;43913;55.940;37.504;2023-03-09T08:37:15;5.25;;;1.98;;
58097;SDS011;43913;55.940;37.504;2023-03-09T08:39:40;2.40;;;1.95;;
58097;SDS011;43913;55.940;37.504;2023-03-09T08:42:06;3.00;;;1.70;;
58097;SDS011;43913;55.940;37.504;2023-03-09T08:44:32;4.78;;;1.77;;
58097;SDS011;43913;55.940;37.504;2023-03-09T08:46:57;3.63;;;2.08;;
58097;SDS011;43913;55.940;37.504;2023-03-09T08:49:23;4.00;;;2.13;;
58097;SDS011;43913;55.940;37.504;2023-03-09T08:51:49;4.00;;;1.70;;
58097;SDS011;43913;55.940;37.504;2023-03-09T08:54:15;3.70;;;1.60;;
58097;SDS011;43913;55.940;37.504;2023-03-09T08:56:41;4.38;;;2.00;;
58097;SDS011;43913;55.940;37.504;2023-03-09T08:59:06;2.92;;;1.60;;
58097;SDS011;43913;55.940;37.504;2023-03-09T09:01:32;4.45;;;1.52;;
58097;SDS011;43913;55.940;37.504;2023-03-09T09:03:58;5.32;;;1.50;;
58097;SDS011;43913;55.940;37.504;2023-03-09T09:06:23;2.03;;;1.70;;
58097;SDS011;43913;55.940;37.504;2023-03-09T09:08:49;1.92;;;1.33;;
58097;SDS011;43913;55.940;37.504;2023-03-09T09:11:15;2.15;;;1.52;;
58097;SDS011;43913;55.940;37.504;2023-03-09T09:13:41;5.18;;;1.95;;
58097;SDS011;43913;55.940;37.504;2023-03-09T09:16:08;2.08;;;1.38;;
58097;SDS011;43913;55.940;37.504;2023-03-09T09:18:36;2.63;;;1.50;;
58097;SDS011;43913;55.940;37.504;2023-03-09T09:21:02;2.60;;;1.60;;
58097;SDS011;43913;55.940;37.504;2023-03-09T09:23:36;4.95;;;1.48;;
58097;SDS011;43913;55.940;37.504;2023-03-09T09:26:03;2.50;;;1.52;;
58097;SDS011;43913;55.940;37.504;2023-03-09T09:28:30;2.03;;;1.60;;
58097;SDS011;43913;55.940;37.504;2023-03-09T09:30:56;3.92;;;1.80;;
58097;SDS011;43913;55.940;37.504;2023-03-09T09:33:27;4.00;;;1.90;;
58097;SDS011;43913;55.940;37.504;2023-03-09T09:36:15;4.25;;;1.52;;
58097;SDS011;43913;55.940;37.504;2023-03-09T09:38:40;2.42;;;1.67;;
58097;SDS011;43913;55.940;37.504;2023-03-09T09:43:49;4.10;;;1.70;;
58097;SDS011;43913;55.940;37.504;2023-03-09T09:46:16;6.07;;;1.90;;
58097;SDS011;43913;55.940;37.504;2023-03-09T09:48:43;3.42;;;1.95;;
58097;SDS011;43913;55.940;37.504;2023-03-09T10:00:02;2.70;;;1.63;;
58097;SDS011;43913;55.940;37.504;2023-03-09T10:02:14;2.13;;;1.60;;
58097;SDS011;43913;55.940;37.504;2023-03-09T10:05:02;1.90;;;1.60;;
58097;SDS011;43913;55.940;37.504;2023-03-09T10:07:30;3.60;;;1.70;;
58097;SDS011;43913;55.940;37.504;2023-03-09T10:09:59;5.85;;;1.70;;
58097;SDS011;43913;55.940;37.504;2023-03-09T10:12:26;2.50;;;1.55;;
58097;SDS011;43913;55.940;37.504;2023-03-09T10:19:52;2.58;;;1.58;;
58097;SDS011;43913;55.940;37.504;2023-03-09T10:22:23;3.95;;;1.60;;
58097;SDS011;43913;55.940;37.504;2023-03-09T10:24:52;4.10;;;1.45;;
58097;SDS011;43913;55.940;37.504;2023-03-09T10:27:19;1.40;;;1.30;;
58097;SDS011;43913;55.940;37.504;2023-03-09T10:37:53;2.13;;;1.30;;
58097;SDS011;43913;55.940;37.504;2023-03-09T10:40:20;4.65;;;2.00;;
58097;SDS011;43913;55.940;37.504;2023-03-09T10:42:50;2.45;;;1.38;;
58097;SDS011;43913;55.940;37.504;2023-03-09T10:45:31;2.35;;;1.50;;
58097;SDS011;43913;55.940;37.504;2023-03-09T10:48:04;1.85;;;1.33;;
58097;SDS011;43913;55.940;37.504;2023-03-09T10:50:35;2.35;;;1.60;;
58097;SDS011;43913;55.940;37.504;2023-03-09T10:53:21;2.70;;;1.48;;
58097;SDS011;43913;55.940;37.504;2023-03-09T10:55:54;1.50;;;1.40;;
58097;SDS011;43913;55.940;37.504;2023-03-09T10:58:22;4.95;;;2.17;;
58097;SDS011;43913;55.940;37.504;2023-03-09T11:00:55;1.58;;;1.48;;
58097;SDS011;43913;55.940;37.504;2023-03-09T11:03:32;2.30;;;1.50;;
58097;SDS011;43913;55.940;37.504;2023-03-09T11:06:47;3.30;;;2.00;;
58097;SDS011;43913;55.940;37.504;2023-03-09T11:09:06;3.90;;;1.92;;
58097;SDS011;43913;55.940;37.504;2023-03-09T11:11:36;2.83;;;1.88;;
58097;SDS011;43913;55.940;37.504;2023-03-09T11:14:01;2.70;;;1.70;;
58097;SDS011;43913;55.940;37.504;2023-03-09T11:16:29;2.33;;;1.70;;
58097;SDS011;43913;55.940;37.504;2023-03-09T11:19:06;2.78;;;2.00;;
58097;SDS011;43913;55.940;37.504;2023-03-09T11:21:35;4.68;;;2.38;;
58097;SDS011;43913;55.940;37.504;2023-03-09T11:24:02;2.28;;;1.80;;
58097;SDS011;43913;55.940;37.504;2023-03-09T11:26:42;3.40;;;1.67;;
58097;SDS011;43913;55.940;37.504;2023-03-09T11:32:21;4.13;;;1.63;;
58097;SDS011;43913;55.940;37.504;2023-03-09T11:34:46;2.78;;;1.85;;
58097;SDS011;43913;55.940;37.504;2023-03-09T11:37:17;2.78;;;1.88;;
58097;SDS011;43913;55.940;37.504;2023-03-09T11:39:53;5.65;;;2.78;;
58097;SDS011;43913;55.940;37.504;2023-03-09T11:42:32;5.63;;;2.55;;
58097;SDS011;43913;55.940;37.504;2023-03-09T11:44:59;3.70;;;2.55;;
58097;SDS011;43913;55.940;37.504;2023-03-09T11:50:25;5.72;;;2.53;;
58097;SDS011;43913;55.940;37.504;2023-03-09T11:52:59;3.42;;;2.10;;
58097;SDS011;43913;55.940;37.504;2023-03-09T11:55:49;4.57;;;2.30;;
58097;SDS011;43913;55.940;37.504;2023-03-09T11:58:22;4.95;;;2.03;;
58097;SDS011;43913;55.940;37.504;2023-03-09T12:00:55;3.72;;;2.72;;
58097;SDS011;43913;55.940;37.504;2023-03-09T12:03:26;3.95;;;2.47;;
58097;SDS011;43913;55.940;37.504;2023-03-09T12:05:54;5.35;;;2.55;;
58097;SDS011;43913;55.940;37.504;2023-03-09T12:14:12;3.83;;;3.15;;
58097;SDS011;43913;55.940;37.504;2023-03-09T12:16:46;6.50;;;2.75;;
58097;SDS011;43913;55.940;37.504;2023-03-09T12:21:44;5.80;;;2.50;;
58097;SDS011;43913;55.940;37.504;2023-03-09T12:27:05;4.50;;;2.50;;
58097;SDS011;43913;55.940;37.504;2023-03-09T12:30:22;4.15;;;2.83;;
58097;SDS011;43913;55.940;37.504;2023-03-09T12:34:52;4.43;;;3.03;;
58097;SDS011;43913;55.940;37.504;2023-03-09T12:42:41;9.82;;;3.10;;
58097;SDS011;43913;55.940;37.504;2023-03-09T12:50:28;4.38;;;2.38;;
58097;SDS011;43913;55.940;37.504;2023-03-09T12:53:20;6.70;;;2.40;;
58097;SDS011;43913;55.940;37.504;2023-03-09T13:01:03;2.72;;;2.25;;
58097;SDS011;43913;55.940;37.504;2023-03-09T13:08:52;4.60;;;3.00;;
58097;SDS011;43913;55.940;37.504;2023-03-09T13:11:20;5.88;;;3.17;;
58097;SDS011;43913;55.940;37.504;2023-03-09T13:13:52;5.35;;;3.00;;
58097;SDS011;43913;55.940;37.504;2023-03-09T13:26:58;5.50;;;2.50;;
58097;SDS011;43913;55.940;37.504;2023-03-09T13:29:49;5.68;;;2.72;;
58097;SDS011;43913;55.940;37.504;2023-03-09T13:32:37;5.35;;;3.05;;
58097;SDS011;43913;55.940;37.504;2023-03-09T13:35:16;5.32;;;2.90;;
58097;SDS011;43913;55.940;37.504;2023-03-09T13:37:42;7.38;;;3.05;;
58097;SDS011;43913;55.940;37.504;2023-03-09T13:42:54;13.87;;;4.03;;
58097;SDS011;43913;55.940;37.504;2023-03-09T13:45:25;13.27;;;4.10;;
58097;SDS011;43913;55.940;37.504;2023-03-09T13:47:53;17.65;;;3.95;;
58097;SDS011;43913;55.940;37.504;2023-03-09T13:50:21;24.02;;;5.00;;
58097;SDS011;43913;55.940;37.504;2023-03-09T13:52:59;14.60;;;4.63;;
58097;SDS011;43913;55.940;37.504;2023-03-09T13:55:40;27.75;;;6.38;;
58097;SDS011;43913;55.940;37.504;2023-03-09T13:58:19;17.83;;;6.22;;
58097;SDS011;43913;55.940;37.504;2023-03-09T14:00:54;11.55;;;3.70;;
58097;SDS011;43913;55.940;37.504;2023-03-09T14:03:25;14.18;;;4.20;;
58097;SDS011;43913;55.940;37.504;2023-03-09T14:05:59;15.57;;;3.22;;
58097;SDS011;43913;55.940;37.504;2023-03-09T14:08:25;12.65;;;3.22;;
58097;SDS011;43913;55.940;37.504;2023-03-09T14:10:52;18.40;;;4.07;;
58097;SDS011;43913;55.940;37.504;2023-03-09T14:13:19;13.38;;;3.38;;
58097;SDS011;43913;55.940;37.504;2023-03-09T14:15:48;13.63;;;3.97;;
58097;SDS011;43913;55.940;37.504;2023-03-09T14:21:03;7.03;;;3.60;;
58097;SDS011;43913;55.940;37.504;2023-03-09T14:23:37;11.35;;;2.67;;
58097;SDS011;43913;55.940;37.504;2023-03-09T14:26:05;5.55;;;3.13;;
58097;SDS011;43913;55.940;37.504;2023-03-09T14:28:56;5.13;;;2.17;;
58097;SDS011;43913;55.940;37.504;2023-03-09T14:31:25;4.65;;;2.38;;
58097;SDS011;43913;55.940;37.504;2023-03-09T14:34:33;5.47;;;2.88;;
58097;SDS011;43913;55.940;37.504;2023-03-09T14:36:52;6.25;;;2.65;;
58097;SDS011;43913;55.940;37.504;2023-03-09T14:39:29;4.53;;;2.10;;
58097;SDS011;43913;55.940;37.504;2023-03-09T14:42:04;4.50;;;2.90;;
58097;SDS011;43913;55.940;37.504;2023-03-09T14:44:37;5.47;;;2.60;;
58097;SDS011;43913;55.940;37.504;2023-03-09T14:47:06;5.55;;;2.72;;
58097;SDS011;43913;55.940;37.504;2023-03-09T14:49:38;8.55;;;2.80;;
58097;SDS011;43913;55.940;37.504;2023-03-09T14:52:04;4.05;;;2.60;;
58097;SDS011;43913;55.940;37.504;2023-03-09T14:54:31;4.78;;;2.45;;
58097;SDS011;43913;55.940;37.504;2023-03-09T14:56:56;5.13;;;2.45;;
58097;SDS011;43913;55.940;37.504;2023-03-09T14:59:22;5.13;;;3.58;;
58097;SDS011;43913;55.940;37.504;2023-03-09T15:01:51;5.53;;;2.92;;
58097;SDS011;43913;55.940;37.504;2023-03-09T15:04:20;6.18;;;2.83;;
58097;SDS011;43913;55.940;37.504;2023-03-09T15:06:46;2.85;;;2.55;;
58097;SDS011;43913;55.940;37.504;2023-03-09T15:09:13;5.90;;;2.03;;
58097;SDS011;43913;55.940;37.504;2023-03-09T15:11:41;4.55;;;2.40;;
58097;SDS011;43913;55.940;37.504;2023-03-09T15:14:07;3.53;;;2.72;;
58097;SDS011;43913;55.940;37.504;2023-03-09T15:16:38;3.80;;;2.30;;
58097;SDS011;43913;55.940;37.504;2023-03-09T15:19:03;4.68;;;2.40;;
58097;SDS011;43913;55.940;37.504;2023-03-09T15:21:29;3.15;;;2.13;;
58097;SDS011;43913;55.940;37.504;2023-03-09T15:23:55;4.50;;;2.15;;
58097;SDS011;43913;55.940;37.504;2023-03-09T15:26:21;3.25;;;2.30;;
58097;SDS011;43913;55.940;37.504;2023-03-09T15:28:46;3.15;;;2.30;;
58097;SDS011;43913;55.940;37.504;2023-03-09T15:31:12;2.65;;;2.22;;
58097;SDS011;43913;55.940;37.504;2023-03-09T15:33:38;3.65;;;2.50;;
58097;SDS011;43913;55.940;37.504;2023-03-09T15:36:07;3.15;;;2.35;;
58097;SDS011;43913;55.940;37.504;2023-03-09T15:38:33;3.72;;;2.67;;
58097;SDS011;43913;55.940;37.504;2023-03-09T15:40:59;3.08;;;2.10;;
58097;SDS011;43913;55.940;37.504;2023-03-09T15:43:25;2.78;;;2.58;;
58097;SDS011;43913;55.940;37.504;2023-03-09T15:45:51;3.78;;;2.53;;
58097;SDS011;43913;55.940;37.504;2023-03-09T15:48:16;5.38;;;2.38;;
58097;SDS011;43913;55.940;37.504;2023-03-09T15:50:49;4.80;;;2.13;;
58097;SDS011;43913;55.940;37.504;2023-03-09T15:53:16;4.70;;;2.28;;
58097;SDS011;43913;55.940;37.504;2023-03-09T15:55:42;3.00;;;2.22;;
58097;SDS011;43913;55.940;37.504;2023-03-09T15:58:07;3.78;;;2.10;;
58097;SDS011;43913;55.940;37.504;2023-03-09T16:00:33;2.92;;;2.13;;
58097;SDS011;43913;55.940;37.504;2023-03-09T16:02:59;5.72;;;2.33;;
58097;SDS011;43913;55.940;37.504;2023-03-09T16:05:26;2.95;;;2.60;;
58097;SDS011;43913;55.940;37.504;2023-03-09T16:07:52;2.20;;;1.92;;
58097;SDS011;43913;55.940;37.504;2023-03-09T16:10:17;2.67;;;2.08;;
58097;SDS011;43913;55.940;37.504;2023-03-09T16:12:43;3.60;;;2.33;;
58097;SDS011;43913;55.940;37.504;2023-03-09T16:15:10;2.92;;;2.13;;
58097;SDS011;43913;55.940;37.504;2023-03-09T16:17:36;4.22;;;2.30;;
58097;SDS011;43913;55.940;37.504;2023-03-09T16:20:02;4.25;;;2.40;;
58097;SDS011;43913;55.940;37.504;2023-03-09T16:22:29;4.72;;;2.97;;
58097;SDS011;43913;55.940;37.504;2023-03-09T16:24:55;4.00;;;2.40;;
58097;SDS011;43913;55.940;37.504;2023-03-09T16:27:21;6.38;;;3.03;;
58097;SDS011;43913;55.940;37.504;2023-03-09T16:29:46;6.05;;;3.08;;
58097;SDS011;43913;55.940;37.504;2023-03-09T16:32:12;5.07;;;3.80;;
58097;SDS011;43913;55.940;37.504;2023-03-09T16:34:38;4.38;;;3.08;;
58097;SDS011;43913;55.940;37.504;2023-03-09T16:37:04;8.52;;;3.22;;
58097;SDS011;43913;55.940;37.504;2023-03-09T16:39:30;4.30;;;3.35;;
58097;SDS011;43913;55.940;37.504;2023-03-09T16:41:57;6.47;;;3.03;;
58097;SDS011;43913;55.940;37.504;2023-03-09T16:44:23;5.85;;;3.05;;
58097;SDS011;43913;55.940;37.504;2023-03-09T16:46:50;4.70;;;3.40;;
58097;SDS011;43913;55.940;37.504;2023-03-09T16:49:19;4.43;;;2.72;;
58097;SDS011;43913;55.940;37.504;2023-03-09T16:51:44;4.65;;;3.00;;
58097;SDS011;43913;55.940;37.504;2023-03-09T16:54:10;6.22;;;3.47;;
58097;SDS011;43913;55.940;37.504;2023-03-09T16:56:36;5.88;;;3.00;;
58097;SDS011;43913;55.940;37.504;2023-03-09T16:59:01;5.70;;;2.50;;
58097;SDS011;43913;55.940;37.504;2023-03-09T17:01:27;5.82;;;3.67;;
58097;SDS011;43913;55.940;37.504;2023-03-09T17:03:53;5.53;;;3.33;;
58097;SDS011;43913;55.940;37.504;2023-03-09T17:06:19;5.43;;;2.80;;
58097;SDS011;43913;55.940;37.504;2023-03-09T17:08:46;5.30;;;2.67;;
58097;SDS011;43913;55.940;37.504;2023-03-09T17:11:15;5.60;;;3.03;;
58097;SDS011;43913;55.940;37.504;2023-03-09T17:13:41;3.72;;;2.97;;
58097;SDS011;43913;55.940;37.504;2023-03-09T17:16:09;5.68;;;3.08;;
58097;SDS011;43913;55.940;37.504;2023-03-09T17:18:36;4.75;;;3.15;;
58097;SDS011;43913;55.940;37.504;2023-03-09T17:21:02;5.57;;;3.50;;
58097;SDS011;43913;55.940;37.504;2023-03-09T17:23:28;6.55;;;3.72;;
58097;SDS011;43913;55.940;37.504;2023-03-09T17:26:01;7.05;;;3.90;;
58097;SDS011;43913;55.940;37.504;2023-03-09T17:28:31;6.80;;;3.67;;
58097;SDS011;43913;55.940;37.504;2023-03-09T17:30:57;5.25;;;3.42;;
58097;SDS011;43913;55.940;37.504;2023-03-09T17:33:23;8.50;;;3.83;;
58097;SDS011;43913;55.940;37.504;2023-03-09T17:35:49;7.00;;;4.15;;
58097;SDS011;43913;55.940;37.504;2023-03-09T17:38:14;6.63;;;3.90;;
58097;SDS011;43913;55.940;37.504;2023-03-09T17:40:44;8.45;;;4.35;;
58097;SDS011;43913;55.940;37.504;2023-03-09T17:43:12;3.83;;;3.15;;
58097;SDS011;43913;55.940;37.504;2023-03-09T17:45:38;8.68;;;4.85;;
58097;SDS011;43913;55.940;37.504;2023-03-09T17:48:04;8.38;;;4.20;;